Terminal Aerodrome Forecast
Issued by NWS

Home | Current Version | Previous Version | Text Only | Print | Product List | Glossary On
Versions: 1 2 3 4 5 6 7 8 9 10 11 12 13 14 15 16 17 18 19 20 21 22 23 24
000
FTUS41 KPHI 160300 AAC
TAFMIV
TAF AMD
KMIV 160346Z 1604/1624 33015G20KT 5SM -RA BR SCT008 OVC012
      TEMPO 1604/1607 2SM -RASN BR OVC008
     FM160700 32018G28KT P6SM SCT030
     FM160900 32012G22KT P6SM FEW050
     FM161800 34015KT P6SM SKC=

USA.gov is the U.S. government's official web portal to all federal, state and local government web resources and services.